<?xml version="1.0" encoding="UTF-8" standalone="no" ?>
<gpx xmlns="http://www.topografix.com/GPX/1/1" xmlns:xsi="http://www.w3.org/2001/XMLSchema-instance" xsi:schemaLocation="http://www.topografix.com/GPX/1/1 http://www.topografix.com/GPX/1/1/gpx.xsd" version="1.1" creator="VisuGPX - https://www.visugpx.com">
  <metadata>
    <name>Circuits de randonnée le 27 mars 2021 à 08:12</name>
  </metadata>
  <trk>
    <name><![CDATA[Circuits de randonnée le 27 mars 2021 à 08:12]]></name>
    <trkseg>
      <trkpt lat="43.66524" lon="3.85824">
        <ele>88.1763</ele>
        <time>2021-03-27T07:12:13.000Z</time>
      </trkpt>
      <trkpt lat="43.66522" lon="3.85826">
        <ele>88.22326</ele>
        <time>2021-03-27T07:12:16.000Z</time>
      </trkpt>
      <trkpt lat="43.66517" lon="3.85832">
        <ele>88.3185</ele>
        <time>2021-03-27T07:12:21.000Z</time>
      </trkpt>
      <trkpt lat="43.66512" lon="3.85842">
        <ele>88.35132</ele>
        <time>2021-03-27T07:12:27.000Z</time>
      </trkpt>
      <trkpt lat="43.66516" lon="3.85844">
        <ele>88.54776</ele>
        <time>2021-03-27T07:12:38.000Z</time>
      </trkpt>
      <trkpt lat="43.66518" lon="3.85843">
        <ele>88.62804</ele>
        <time>2021-03-27T07:12:41.000Z</time>
      </trkpt>
      <trkpt lat="43.6652" lon="3.85836">
        <ele>88.69433</ele>
        <time>2021-03-27T07:12:52.000Z</time>
      </trkpt>
      <trkpt lat="43.66517" lon="3.85819">
        <ele>88.85406</ele>
        <time>2021-03-27T07:12:58.000Z</time>
      </trkpt>
      <trkpt lat="43.66511" lon="3.85799">
        <ele>88.79366</ele>
        <time>2021-03-27T07:13:03.000Z</time>
      </trkpt>
      <trkpt lat="43.665" lon="3.8578">
        <ele>88.73854</ele>
        <time>2021-03-27T07:13:07.000Z</time>
      </trkpt>
      <trkpt lat="43.66501" lon="3.85769">
        <ele>88.69705</ele>
        <time>2021-03-27T07:13:10.000Z</time>
      </trkpt>
      <trkpt lat="43.66518" lon="3.85727">
        <ele>88.47307</ele>
        <time>2021-03-27T07:13:15.000Z</time>
      </trkpt>
      <trkpt lat="43.66527" lon="3.85702">
        <ele>88.12953</ele>
        <time>2021-03-27T07:13:20.000Z</time>
      </trkpt>
      <trkpt lat="43.66583" lon="3.85699">
        <ele>86.29044</ele>
        <time>2021-03-27T07:13:31.000Z</time>
      </trkpt>
      <trkpt lat="43.66607" lon="3.85701">
        <ele>85.22591</ele>
        <time>2021-03-27T07:13:35.000Z</time>
      </trkpt>
      <trkpt lat="43.66631" lon="3.8569">
        <ele>84.20292</ele>
        <time>2021-03-27T07:13:38.000Z</time>
      </trkpt>
      <trkpt lat="43.66623" lon="3.85653">
        <ele>82.0172</ele>
        <time>2021-03-27T07:13:46.000Z</time>
      </trkpt>
      <trkpt lat="43.66621" lon="3.85599">
        <ele>80.52663</ele>
        <time>2021-03-27T07:13:53.000Z</time>
      </trkpt>
      <trkpt lat="43.66623" lon="3.85563">
        <ele>80.00286</ele>
        <time>2021-03-27T07:13:57.000Z</time>
      </trkpt>
      <trkpt lat="43.66617" lon="3.85534">
        <ele>79.39767</ele>
        <time>2021-03-27T07:14:01.000Z</time>
      </trkpt>
      <trkpt lat="43.66614" lon="3.85501">
        <ele>78.83774</ele>
        <time>2021-03-27T07:14:05.000Z</time>
      </trkpt>
      <trkpt lat="43.66605" lon="3.85465">
        <ele>78.49242</ele>
        <time>2021-03-27T07:14:10.000Z</time>
      </trkpt>
      <trkpt lat="43.66601" lon="3.85423">
        <ele>78.40947</ele>
        <time>2021-03-27T07:14:15.000Z</time>
      </trkpt>
      <trkpt lat="43.66595" lon="3.85311">
        <ele>78.28566</ele>
        <time>2021-03-27T07:14:30.000Z</time>
      </trkpt>
      <trkpt lat="43.66594" lon="3.8526">
        <ele>78.13015</ele>
        <time>2021-03-27T07:14:36.000Z</time>
      </trkpt>
      <trkpt lat="43.66595" lon="3.8522">
        <ele>77.95192</ele>
        <time>2021-03-27T07:14:41.000Z</time>
      </trkpt>
      <trkpt lat="43.66594" lon="3.85175">
        <ele>77.68252</ele>
        <time>2021-03-27T07:14:47.000Z</time>
      </trkpt>
      <trkpt lat="43.666" lon="3.85134">
        <ele>77.38394</ele>
        <time>2021-03-27T07:14:52.000Z</time>
      </trkpt>
      <trkpt lat="43.66596" lon="3.85103">
        <ele>77.14276</ele>
        <time>2021-03-27T07:14:56.000Z</time>
      </trkpt>
      <trkpt lat="43.66596" lon="3.85073">
        <ele>76.90044</ele>
        <time>2021-03-27T07:15:00.000Z</time>
      </trkpt>
      <trkpt lat="43.6659" lon="3.85035">
        <ele>76.60719</ele>
        <time>2021-03-27T07:15:05.000Z</time>
      </trkpt>
      <trkpt lat="43.66576" lon="3.84979">
        <ele>76.18527</ele>
        <time>2021-03-27T07:15:12.000Z</time>
      </trkpt>
      <trkpt lat="43.66566" lon="3.84909">
        <ele>75.70654</ele>
        <time>2021-03-27T07:15:21.000Z</time>
      </trkpt>
      <trkpt lat="43.66564" lon="3.84853">
        <ele>75.11912</ele>
        <time>2021-03-27T07:15:28.000Z</time>
      </trkpt>
      <trkpt lat="43.66563" lon="3.84819">
        <ele>74.64127</ele>
        <time>2021-03-27T07:15:32.000Z</time>
      </trkpt>
      <trkpt lat="43.66559" lon="3.84763">
        <ele>73.63949</ele>
        <time>2021-03-27T07:15:39.000Z</time>
      </trkpt>
      <trkpt lat="43.66547" lon="3.84724">
        <ele>72.98841</ele>
        <time>2021-03-27T07:15:44.000Z</time>
      </trkpt>
      <trkpt lat="43.6655" lon="3.84667">
        <ele>72.13906</ele>
        <time>2021-03-27T07:15:52.000Z</time>
      </trkpt>
      <trkpt lat="43.6656" lon="3.8462">
        <ele>71.86132</ele>
        <time>2021-03-27T07:15:59.000Z</time>
      </trkpt>
      <trkpt lat="43.66569" lon="3.84574">
        <ele>71.56026</ele>
        <time>2021-03-27T07:16:06.000Z</time>
      </trkpt>
      <trkpt lat="43.66568" lon="3.84538">
        <ele>71.29425</ele>
        <time>2021-03-27T07:16:11.000Z</time>
      </trkpt>
      <trkpt lat="43.66576" lon="3.8448">
        <ele>70.82079</ele>
        <time>2021-03-27T07:16:19.000Z</time>
      </trkpt>
      <trkpt lat="43.66586" lon="3.8445">
        <ele>70.59914</ele>
        <time>2021-03-27T07:16:23.000Z</time>
      </trkpt>
      <trkpt lat="43.66618" lon="3.84399">
        <ele>70.09933</ele>
        <time>2021-03-27T07:16:32.000Z</time>
      </trkpt>
      <trkpt lat="43.66638" lon="3.84364">
        <ele>69.77179</ele>
        <time>2021-03-27T07:16:39.000Z</time>
      </trkpt>
      <trkpt lat="43.6666" lon="3.84331">
        <ele>69.52578</ele>
        <time>2021-03-27T07:16:44.000Z</time>
      </trkpt>
      <trkpt lat="43.66679" lon="3.8431">
        <ele>69.33028</ele>
        <time>2021-03-27T07:16:48.000Z</time>
      </trkpt>
      <trkpt lat="43.66692" lon="3.84286">
        <ele>68.96801</ele>
        <time>2021-03-27T07:16:52.000Z</time>
      </trkpt>
      <trkpt lat="43.66711" lon="3.84258">
        <ele>68.33011</ele>
        <time>2021-03-27T07:16:58.000Z</time>
      </trkpt>
      <trkpt lat="43.66726" lon="3.8423">
        <ele>67.72785</ele>
        <time>2021-03-27T07:17:04.000Z</time>
      </trkpt>
      <trkpt lat="43.66749" lon="3.84201">
        <ele>67.25696</ele>
        <time>2021-03-27T07:17:10.000Z</time>
      </trkpt>
      <trkpt lat="43.66771" lon="3.84169">
        <ele>66.90604</ele>
        <time>2021-03-27T07:17:15.000Z</time>
      </trkpt>
      <trkpt lat="43.66794" lon="3.84149">
        <ele>66.63839</ele>
        <time>2021-03-27T07:17:20.000Z</time>
      </trkpt>
      <trkpt lat="43.66826" lon="3.84137">
        <ele>66.38267</ele>
        <time>2021-03-27T07:17:26.000Z</time>
      </trkpt>
      <trkpt lat="43.66845" lon="3.84134">
        <ele>66.26827</ele>
        <time>2021-03-27T07:17:30.000Z</time>
      </trkpt>
      <trkpt lat="43.66866" lon="3.84126">
        <ele>66.16083</ele>
        <time>2021-03-27T07:17:35.000Z</time>
      </trkpt>
      <trkpt lat="43.66885" lon="3.84126">
        <ele>66.06238</ele>
        <time>2021-03-27T07:17:40.000Z</time>
      </trkpt>
      <trkpt lat="43.66888" lon="3.84125">
        <ele>66.03195</ele>
        <time>2021-03-27T07:17:41.000Z</time>
      </trkpt>
      <trkpt lat="43.66886" lon="3.84096">
        <ele>65.84622</ele>
        <time>2021-03-27T07:17:50.000Z</time>
      </trkpt>
      <trkpt lat="43.66895" lon="3.84066">
        <ele>65.76492</ele>
        <time>2021-03-27T07:17:55.000Z</time>
      </trkpt>
      <trkpt lat="43.66917" lon="3.8403">
        <ele>65.63323</ele>
        <time>2021-03-27T07:18:02.000Z</time>
      </trkpt>
      <trkpt lat="43.6692" lon="3.84024">
        <ele>65.57631</ele>
        <time>2021-03-27T07:18:07.000Z</time>
      </trkpt>
      <trkpt lat="43.66918" lon="3.83998">
        <ele>65.44642</ele>
        <time>2021-03-27T07:18:13.000Z</time>
      </trkpt>
      <trkpt lat="43.66916" lon="3.83972">
        <ele>65.33208</ele>
        <time>2021-03-27T07:18:18.000Z</time>
      </trkpt>
      <trkpt lat="43.66899" lon="3.83945">
        <ele>65.303</ele>
        <time>2021-03-27T07:18:25.000Z</time>
      </trkpt>
      <trkpt lat="43.66894" lon="3.83913">
        <ele>65.31116</ele>
        <time>2021-03-27T07:18:30.000Z</time>
      </trkpt>
      <trkpt lat="43.66884" lon="3.83886">
        <ele>65.32612</ele>
        <time>2021-03-27T07:18:34.000Z</time>
      </trkpt>
      <trkpt lat="43.66878" lon="3.83859">
        <ele>65.37236</ele>
        <time>2021-03-27T07:18:38.000Z</time>
      </trkpt>
      <trkpt lat="43.66877" lon="3.83811">
        <ele>65.76645</ele>
        <time>2021-03-27T07:18:46.000Z</time>
      </trkpt>
      <trkpt lat="43.66866" lon="3.83788">
        <ele>66.2251</ele>
        <time>2021-03-27T07:18:50.000Z</time>
      </trkpt>
      <trkpt lat="43.66859" lon="3.83752">
        <ele>67.36747</ele>
        <time>2021-03-27T07:18:56.000Z</time>
      </trkpt>
      <trkpt lat="43.6686" lon="3.8372">
        <ele>68.62883</ele>
        <time>2021-03-27T07:19:01.000Z</time>
      </trkpt>
      <trkpt lat="43.66867" lon="3.83691">
        <ele>69.74847</ele>
        <time>2021-03-27T07:19:06.000Z</time>
      </trkpt>
      <trkpt lat="43.66871" lon="3.83654">
        <ele>70.80166</ele>
        <time>2021-03-27T07:19:12.000Z</time>
      </trkpt>
      <trkpt lat="43.66868" lon="3.83639">
        <ele>71.29077</ele>
        <time>2021-03-27T07:19:15.000Z</time>
      </trkpt>
      <trkpt lat="43.6687" lon="3.83615">
        <ele>71.77591</ele>
        <time>2021-03-27T07:19:18.000Z</time>
      </trkpt>
      <trkpt lat="43.6686" lon="3.83602">
        <ele>72.46439</ele>
        <time>2021-03-27T07:19:23.000Z</time>
      </trkpt>
      <trkpt lat="43.66849" lon="3.83592">
        <ele>73.18839</ele>
        <time>2021-03-27T07:19:27.000Z</time>
      </trkpt>
      <trkpt lat="43.66837" lon="3.83576">
        <ele>74.11221</ele>
        <time>2021-03-27T07:19:33.000Z</time>
      </trkpt>
      <trkpt lat="43.66823" lon="3.83573">
        <ele>74.97847</ele>
        <time>2021-03-27T07:19:38.000Z</time>
      </trkpt>
      <trkpt lat="43.668" lon="3.83585">
        <ele>76.79637</ele>
        <time>2021-03-27T07:19:46.000Z</time>
      </trkpt>
      <trkpt lat="43.66765" lon="3.83588">
        <ele>80.92377</ele>
        <time>2021-03-27T07:19:56.000Z</time>
      </trkpt>
      <trkpt lat="43.66752" lon="3.8358">
        <ele>83.69981</ele>
        <time>2021-03-27T07:20:01.000Z</time>
      </trkpt>
      <trkpt lat="43.66746" lon="3.83558">
        <ele>85.5301</ele>
        <time>2021-03-27T07:20:06.000Z</time>
      </trkpt>
      <trkpt lat="43.66738" lon="3.83485">
        <ele>87.18945</ele>
        <time>2021-03-27T07:20:19.000Z</time>
      </trkpt>
      <trkpt lat="43.66733" lon="3.83462">
        <ele>87.40326</ele>
        <time>2021-03-27T07:20:24.000Z</time>
      </trkpt>
      <trkpt lat="43.66738" lon="3.834">
        <ele>87.71578</ele>
        <time>2021-03-27T07:20:38.000Z</time>
      </trkpt>
      <trkpt lat="43.66743" lon="3.8338">
        <ele>87.8813</ele>
        <time>2021-03-27T07:20:42.000Z</time>
      </trkpt>
      <trkpt lat="43.66758" lon="3.83352">
        <ele>88.25334</ele>
        <time>2021-03-27T07:20:48.000Z</time>
      </trkpt>
      <trkpt lat="43.66765" lon="3.83323">
        <ele>88.89096</ele>
        <time>2021-03-27T07:20:52.000Z</time>
      </trkpt>
      <trkpt lat="43.66771" lon="3.83297">
        <ele>90.24155</ele>
        <time>2021-03-27T07:20:57.000Z</time>
      </trkpt>
      <trkpt lat="43.66763" lon="3.83271">
        <ele>92.14946</ele>
        <time>2021-03-27T07:21:03.000Z</time>
      </trkpt>
      <trkpt lat="43.66754" lon="3.83255">
        <ele>94.30189</ele>
        <time>2021-03-27T07:21:08.000Z</time>
      </trkpt>
      <trkpt lat="43.66749" lon="3.8323">
        <ele>96.67742</ele>
        <time>2021-03-27T07:21:14.000Z</time>
      </trkpt>
      <trkpt lat="43.66739" lon="3.83207">
        <ele>98.38276</ele>
        <time>2021-03-27T07:21:19.000Z</time>
      </trkpt>
      <trkpt lat="43.66736" lon="3.83188">
        <ele>99.80234</ele>
        <time>2021-03-27T07:21:23.000Z</time>
      </trkpt>
      <trkpt lat="43.66736" lon="3.83161">
        <ele>102.22954</ele>
        <time>2021-03-27T07:21:29.000Z</time>
      </trkpt>
      <trkpt lat="43.66734" lon="3.83153">
        <ele>103.19358</ele>
        <time>2021-03-27T07:21:32.000Z</time>
      </trkpt>
      <trkpt lat="43.66731" lon="3.83139">
        <ele>105.13438</ele>
        <time>2021-03-27T07:21:38.000Z</time>
      </trkpt>
      <trkpt lat="43.66677" lon="3.83137">
        <ele>112.02152</ele>
        <time>2021-03-27T07:21:56.000Z</time>
      </trkpt>
      <trkpt lat="43.66638" lon="3.83136">
        <ele>113.62221</ele>
        <time>2021-03-27T07:22:07.000Z</time>
      </trkpt>
      <trkpt lat="43.66628" lon="3.8313">
        <ele>113.98671</ele>
        <time>2021-03-27T07:22:11.000Z</time>
      </trkpt>
      <trkpt lat="43.66632" lon="3.83108">
        <ele>114.38201</ele>
        <time>2021-03-27T07:22:18.000Z</time>
      </trkpt>
      <trkpt lat="43.66639" lon="3.83053">
        <ele>114.88097</ele>
        <time>2021-03-27T07:22:30.000Z</time>
      </trkpt>
      <trkpt lat="43.66642" lon="3.8302">
        <ele>114.98403</ele>
        <time>2021-03-27T07:22:52.000Z</time>
      </trkpt>
      <trkpt lat="43.66632" lon="3.82968">
        <ele>114.96198</ele>
        <time>2021-03-27T07:23:04.000Z</time>
      </trkpt>
      <trkpt lat="43.66624" lon="3.82947">
        <ele>114.91928</ele>
        <time>2021-03-27T07:23:09.000Z</time>
      </trkpt>
      <trkpt lat="43.66608" lon="3.8291">
        <ele>114.85163</ele>
        <time>2021-03-27T07:23:17.000Z</time>
      </trkpt>
      <trkpt lat="43.66606" lon="3.82885">
        <ele>114.77891</ele>
        <time>2021-03-27T07:23:22.000Z</time>
      </trkpt>
      <trkpt lat="43.66608" lon="3.82857">
        <ele>114.68864</ele>
        <time>2021-03-27T07:23:27.000Z</time>
      </trkpt>
      <trkpt lat="43.66636" lon="3.8283">
        <ele>114.4591</ele>
        <time>2021-03-27T07:23:34.000Z</time>
      </trkpt>
      <trkpt lat="43.66658" lon="3.82805">
        <ele>114.28811</ele>
        <time>2021-03-27T07:23:39.000Z</time>
      </trkpt>
      <trkpt lat="43.66679" lon="3.82791">
        <ele>114.07335</ele>
        <time>2021-03-27T07:23:45.000Z</time>
      </trkpt>
      <trkpt lat="43.6669" lon="3.8278">
        <ele>113.97502</ele>
        <time>2021-03-27T07:23:48.000Z</time>
      </trkpt>
      <trkpt lat="43.66704" lon="3.82761">
        <ele>113.85571</ele>
        <time>2021-03-27T07:23:52.000Z</time>
      </trkpt>
      <trkpt lat="43.66718" lon="3.82746">
        <ele>113.71663</ele>
        <time>2021-03-27T07:23:56.000Z</time>
      </trkpt>
      <trkpt lat="43.66742" lon="3.82727">
        <ele>113.4909</ele>
        <time>2021-03-27T07:24:03.000Z</time>
      </trkpt>
      <trkpt lat="43.66769" lon="3.82711">
        <ele>113.22892</ele>
        <time>2021-03-27T07:24:11.000Z</time>
      </trkpt>
      <trkpt lat="43.668" lon="3.82684">
        <ele>112.99097</ele>
        <time>2021-03-27T07:24:18.000Z</time>
      </trkpt>
      <trkpt lat="43.66816" lon="3.82673">
        <ele>112.88218</ele>
        <time>2021-03-27T07:24:23.000Z</time>
      </trkpt>
      <trkpt lat="43.66833" lon="3.82664">
        <ele>112.77203</ele>
        <time>2021-03-27T07:24:29.000Z</time>
      </trkpt>
      <trkpt lat="43.66853" lon="3.82653">
        <ele>112.3845</ele>
        <time>2021-03-27T07:24:35.000Z</time>
      </trkpt>
      <trkpt lat="43.66865" lon="3.82639">
        <ele>111.64096</ele>
        <time>2021-03-27T07:24:40.000Z</time>
      </trkpt>
      <trkpt lat="43.66876" lon="3.82621">
        <ele>110.58293</ele>
        <time>2021-03-27T07:24:45.000Z</time>
      </trkpt>
      <trkpt lat="43.66892" lon="3.82609">
        <ele>109.73691</ele>
        <time>2021-03-27T07:24:49.000Z</time>
      </trkpt>
      <trkpt lat="43.66909" lon="3.82594">
        <ele>109.02178</ele>
        <time>2021-03-27T07:24:53.000Z</time>
      </trkpt>
      <trkpt lat="43.66918" lon="3.82585">
        <ele>108.50961</ele>
        <time>2021-03-27T07:24:56.000Z</time>
      </trkpt>
      <trkpt lat="43.66924" lon="3.82586">
        <ele>108.18596</ele>
        <time>2021-03-27T07:24:59.000Z</time>
      </trkpt>
      <trkpt lat="43.66931" lon="3.82575">
        <ele>107.38038</ele>
        <time>2021-03-27T07:25:13.000Z</time>
      </trkpt>
      <trkpt lat="43.66966" lon="3.82548">
        <ele>106.74502</ele>
        <time>2021-03-27T07:25:23.000Z</time>
      </trkpt>
      <trkpt lat="43.66983" lon="3.82525">
        <ele>106.50031</ele>
        <time>2021-03-27T07:25:28.000Z</time>
      </trkpt>
      <trkpt lat="43.66999" lon="3.82506">
        <ele>106.34459</ele>
        <time>2021-03-27T07:25:33.000Z</time>
      </trkpt>
      <trkpt lat="43.67019" lon="3.82489">
        <ele>106.25342</ele>
        <time>2021-03-27T07:25:39.000Z</time>
      </trkpt>
      <trkpt lat="43.67027" lon="3.82476">
        <ele>106.20985</ele>
        <time>2021-03-27T07:25:44.000Z</time>
      </trkpt>
      <trkpt lat="43.67048" lon="3.82448">
        <ele>106.17088</ele>
        <time>2021-03-27T07:25:52.000Z</time>
      </trkpt>
      <trkpt lat="43.67053" lon="3.8243">
        <ele>106.18665</ele>
        <time>2021-03-27T07:25:56.000Z</time>
      </trkpt>
      <trkpt lat="43.67064" lon="3.82414">
        <ele>106.22353</ele>
        <time>2021-03-27T07:26:01.000Z</time>
      </trkpt>
      <trkpt lat="43.67072" lon="3.82401">
        <ele>106.26335</ele>
        <time>2021-03-27T07:26:05.000Z</time>
      </trkpt>
      <trkpt lat="43.67079" lon="3.82379">
        <ele>106.35555</ele>
        <time>2021-03-27T07:26:10.000Z</time>
      </trkpt>
      <trkpt lat="43.6709" lon="3.82362">
        <ele>106.67358</ele>
        <time>2021-03-27T07:26:17.000Z</time>
      </trkpt>
      <trkpt lat="43.67098" lon="3.82352">
        <ele>107.05092</ele>
        <time>2021-03-27T07:26:20.000Z</time>
      </trkpt>
      <trkpt lat="43.67103" lon="3.82335">
        <ele>107.85246</ele>
        <time>2021-03-27T07:26:24.000Z</time>
      </trkpt>
      <trkpt lat="43.67113" lon="3.82323">
        <ele>109.09711</ele>
        <time>2021-03-27T07:26:28.000Z</time>
      </trkpt>
      <trkpt lat="43.6712" lon="3.82316">
        <ele>110.15096</ele>
        <time>2021-03-27T07:26:31.000Z</time>
      </trkpt>
      <trkpt lat="43.6713" lon="3.82309">
        <ele>111.1706</ele>
        <time>2021-03-27T07:26:37.000Z</time>
      </trkpt>
      <trkpt lat="43.67116" lon="3.82291">
        <ele>112.75285</ele>
        <time>2021-03-27T07:27:08.001Z</time>
      </trkpt>
      <trkpt lat="43.67095" lon="3.82277">
        <ele>113.14198</ele>
        <time>2021-03-27T07:27:14.001Z</time>
      </trkpt>
      <trkpt lat="43.67086" lon="3.82254">
        <ele>113.46396</ele>
        <time>2021-03-27T07:27:19.001Z</time>
      </trkpt>
      <trkpt lat="43.67085" lon="3.82224">
        <ele>114.46094</ele>
        <time>2021-03-27T07:27:24.001Z</time>
      </trkpt>
      <trkpt lat="43.6709" lon="3.82208">
        <ele>115.24096</ele>
        <time>2021-03-27T07:27:27.001Z</time>
      </trkpt>
      <trkpt lat="43.67121" lon="3.82148">
        <ele>118.61205</ele>
        <time>2021-03-27T07:27:41.000Z</time>
      </trkpt>
      <trkpt lat="43.67137" lon="3.82129">
        <ele>119.95256</ele>
        <time>2021-03-27T07:27:47.000Z</time>
      </trkpt>
      <trkpt lat="43.67138" lon="3.82109">
        <ele>120.79624</ele>
        <time>2021-03-27T07:27:51.000Z</time>
      </trkpt>
      <trkpt lat="43.67131" lon="3.82071">
        <ele>122.30404</ele>
        <time>2021-03-27T07:27:58.000Z</time>
      </trkpt>
      <trkpt lat="43.67115" lon="3.82034">
        <ele>123.82658</ele>
        <time>2021-03-27T07:28:06.000Z</time>
      </trkpt>
      <trkpt lat="43.67113" lon="3.82007">
        <ele>124.72717</ele>
        <time>2021-03-27T07:28:11.000Z</time>
      </trkpt>
      <trkpt lat="43.67113" lon="3.81978">
        <ele>125.53917</ele>
        <time>2021-03-27T07:28:15.000Z</time>
      </trkpt>
      <trkpt lat="43.6712" lon="3.81951">
        <ele>126.50347</ele>
        <time>2021-03-27T07:28:20.000Z</time>
      </trkpt>
      <trkpt lat="43.67124" lon="3.8193">
        <ele>127.08847</ele>
        <time>2021-03-27T07:28:24.000Z</time>
      </trkpt>
      <trkpt lat="43.67125" lon="3.81892">
        <ele>127.96549</ele>
        <time>2021-03-27T07:28:31.000Z</time>
      </trkpt>
      <trkpt lat="43.67118" lon="3.81843">
        <ele>128.6051</ele>
        <time>2021-03-27T07:28:39.000Z</time>
      </trkpt>
      <trkpt lat="43.67105" lon="3.81788">
        <ele>128.65677</ele>
        <time>2021-03-27T07:28:46.000Z</time>
      </trkpt>
      <trkpt lat="43.67077" lon="3.81753">
        <ele>128.49631</ele>
        <time>2021-03-27T07:28:53.000Z</time>
      </trkpt>
      <trkpt lat="43.67052" lon="3.81727">
        <ele>128.43007</ele>
        <time>2021-03-27T07:28:59.000Z</time>
      </trkpt>
      <trkpt lat="43.67031" lon="3.8171">
        <ele>128.35262</ele>
        <time>2021-03-27T07:29:03.000Z</time>
      </trkpt>
      <trkpt lat="43.67013" lon="3.81677">
        <ele>128.13748</ele>
        <time>2021-03-27T07:29:08.000Z</time>
      </trkpt>
      <trkpt lat="43.66991" lon="3.81654">
        <ele>127.70628</ele>
        <time>2021-03-27T07:29:12.000Z</time>
      </trkpt>
      <trkpt lat="43.66981" lon="3.81627">
        <ele>126.56519</ele>
        <time>2021-03-27T07:29:17.000Z</time>
      </trkpt>
      <trkpt lat="43.66969" lon="3.81608">
        <ele>124.33036</ele>
        <time>2021-03-27T07:29:22.000Z</time>
      </trkpt>
      <trkpt lat="43.66929" lon="3.8158">
        <ele>118.73151</ele>
        <time>2021-03-27T07:29:29.000Z</time>
      </trkpt>
      <trkpt lat="43.669" lon="3.81572">
        <ele>115.71979</ele>
        <time>2021-03-27T07:29:35.000Z</time>
      </trkpt>
      <trkpt lat="43.66886" lon="3.81557">
        <ele>115.11159</ele>
        <time>2021-03-27T07:29:39.000Z</time>
      </trkpt>
      <trkpt lat="43.66875" lon="3.81538">
        <ele>115.15006</ele>
        <time>2021-03-27T07:29:43.000Z</time>
      </trkpt>
      <trkpt lat="43.66859" lon="3.81527">
        <ele>115.61806</ele>
        <time>2021-03-27T07:29:47.000Z</time>
      </trkpt>
      <trkpt lat="43.66843" lon="3.81517">
        <ele>116.16652</ele>
        <time>2021-03-27T07:29:51.000Z</time>
      </trkpt>
      <trkpt lat="43.66831" lon="3.81505">
        <ele>116.78572</ele>
        <time>2021-03-27T07:29:55.000Z</time>
      </trkpt>
      <trkpt lat="43.66817" lon="3.81488">
        <ele>117.59534</ele>
        <time>2021-03-27T07:30:00.000Z</time>
      </trkpt>
      <trkpt lat="43.66787" lon="3.81474">
        <ele>119.0018</ele>
        <time>2021-03-27T07:30:08.000Z</time>
      </trkpt>
      <trkpt lat="43.66755" lon="3.81455">
        <ele>120.69847</ele>
        <time>2021-03-27T07:30:16.000Z</time>
      </trkpt>
      <trkpt lat="43.66736" lon="3.81447">
        <ele>121.92396</ele>
        <time>2021-03-27T07:30:21.000Z</time>
      </trkpt>
      <trkpt lat="43.66716" lon="3.81441">
        <ele>123.10517</ele>
        <time>2021-03-27T07:30:26.000Z</time>
      </trkpt>
      <trkpt lat="43.66696" lon="3.81431">
        <ele>124.36177</ele>
        <time>2021-03-27T07:30:32.000Z</time>
      </trkpt>
      <trkpt lat="43.66685" lon="3.81413">
        <ele>125.12681</ele>
        <time>2021-03-27T07:30:36.000Z</time>
      </trkpt>
      <trkpt lat="43.66679" lon="3.81393">
        <ele>125.87648</ele>
        <time>2021-03-27T07:30:40.000Z</time>
      </trkpt>
      <trkpt lat="43.66681" lon="3.81372">
        <ele>126.69751</ele>
        <time>2021-03-27T07:30:44.000Z</time>
      </trkpt>
      <trkpt lat="43.66694" lon="3.81323">
        <ele>128.61577</ele>
        <time>2021-03-27T07:30:52.000Z</time>
      </trkpt>
      <trkpt lat="43.667" lon="3.81293">
        <ele>130.36703</ele>
        <time>2021-03-27T07:30:58.000Z</time>
      </trkpt>
      <trkpt lat="43.66719" lon="3.81257">
        <ele>132.40151</ele>
        <time>2021-03-27T07:31:07.000Z</time>
      </trkpt>
      <trkpt lat="43.66743" lon="3.81229">
        <ele>132.83435</ele>
        <time>2021-03-27T07:31:14.000Z</time>
      </trkpt>
      <trkpt lat="43.66741" lon="3.81207">
        <ele>133.00017</ele>
        <time>2021-03-27T07:31:18.000Z</time>
      </trkpt>
      <trkpt lat="43.66726" lon="3.81201">
        <ele>133.33654</ele>
        <time>2021-03-27T07:31:23.000Z</time>
      </trkpt>
      <trkpt lat="43.6671" lon="3.81193">
        <ele>133.71445</ele>
        <time>2021-03-27T07:31:28.000Z</time>
      </trkpt>
      <trkpt lat="43.66699" lon="3.81177">
        <ele>134.37428</ele>
        <time>2021-03-27T07:31:35.000Z</time>
      </trkpt>
      <trkpt lat="43.66684" lon="3.81135">
        <ele>135.76542</ele>
        <time>2021-03-27T07:31:44.000Z</time>
      </trkpt>
      <trkpt lat="43.66685" lon="3.81109">
        <ele>136.71828</ele>
        <time>2021-03-27T07:31:49.000Z</time>
      </trkpt>
      <trkpt lat="43.66722" lon="3.81045">
        <ele>138.63716</ele>
        <time>2021-03-27T07:32:03.000Z</time>
      </trkpt>
      <trkpt lat="43.66733" lon="3.81017">
        <ele>138.53681</ele>
        <time>2021-03-27T07:32:08.000Z</time>
      </trkpt>
      <trkpt lat="43.66755" lon="3.81003">
        <ele>137.79463</ele>
        <time>2021-03-27T07:32:13.000Z</time>
      </trkpt>
      <trkpt lat="43.66794" lon="3.80993">
        <ele>135.95706</ele>
        <time>2021-03-27T07:32:19.000Z</time>
      </trkpt>
      <trkpt lat="43.66828" lon="3.80971">
        <ele>134.30979</ele>
        <time>2021-03-27T07:32:27.000Z</time>
      </trkpt>
      <trkpt lat="43.66849" lon="3.80951">
        <ele>133.81187</ele>
        <time>2021-03-27T07:32:32.000Z</time>
      </trkpt>
      <trkpt lat="43.66867" lon="3.8093">
        <ele>133.40591</ele>
        <time>2021-03-27T07:32:36.000Z</time>
      </trkpt>
      <trkpt lat="43.66899" lon="3.80894">
        <ele>132.70306</ele>
        <time>2021-03-27T07:32:43.000Z</time>
      </trkpt>
      <trkpt lat="43.66908" lon="3.80862">
        <ele>132.28178</ele>
        <time>2021-03-27T07:32:48.000Z</time>
      </trkpt>
      <trkpt lat="43.66911" lon="3.80831">
        <ele>131.90651</ele>
        <time>2021-03-27T07:32:53.000Z</time>
      </trkpt>
      <trkpt lat="43.66919" lon="3.80806">
        <ele>131.75925</ele>
        <time>2021-03-27T07:32:58.000Z</time>
      </trkpt>
      <trkpt lat="43.66926" lon="3.80773">
        <ele>131.63041</ele>
        <time>2021-03-27T07:33:03.000Z</time>
      </trkpt>
      <trkpt lat="43.66923" lon="3.80732">
        <ele>131.29296</ele>
        <time>2021-03-27T07:33:09.000Z</time>
      </trkpt>
      <trkpt lat="43.66928" lon="3.80661">
        <ele>128.205</ele>
        <time>2021-03-27T07:33:19.000Z</time>
      </trkpt>
      <trkpt lat="43.66934" lon="3.80577">
        <ele>119.22034</ele>
        <time>2021-03-27T07:33:28.000Z</time>
      </trkpt>
      <trkpt lat="43.66941" lon="3.80548">
        <ele>112.70329</ele>
        <time>2021-03-27T07:33:34.000Z</time>
      </trkpt>
      <trkpt lat="43.66952" lon="3.80523">
        <ele>108.77198</ele>
        <time>2021-03-27T07:33:39.000Z</time>
      </trkpt>
      <trkpt lat="43.66982" lon="3.80492">
        <ele>104.82095</ele>
        <time>2021-03-27T07:33:48.000Z</time>
      </trkpt>
      <trkpt lat="43.66999" lon="3.8047">
        <ele>103.45371</ele>
        <time>2021-03-27T07:33:52.001Z</time>
      </trkpt>
      <trkpt lat="43.6701" lon="3.80462">
        <ele>102.6708</ele>
        <time>2021-03-27T07:33:54.001Z</time>
      </trkpt>
      <trkpt lat="43.67014" lon="3.80456">
        <ele>102.29265</ele>
        <time>2021-03-27T07:33:56.001Z</time>
      </trkpt>
      <trkpt lat="43.67018" lon="3.8044">
        <ele>101.59521</ele>
        <time>2021-03-27T07:33:59.001Z</time>
      </trkpt>
      <trkpt lat="43.67006" lon="3.80457">
        <ele>99.98044</ele>
        <time>2021-03-27T07:34:11.001Z</time>
      </trkpt>
      <trkpt lat="43.66987" lon="3.80486">
        <ele>100.11287</ele>
        <time>2021-03-27T07:34:18.001Z</time>
      </trkpt>
      <trkpt lat="43.66968" lon="3.80507">
        <ele>100.5498</ele>
        <time>2021-03-27T07:34:24.001Z</time>
      </trkpt>
      <trkpt lat="43.66955" lon="3.80528">
        <ele>101.23781</ele>
        <time>2021-03-27T07:34:29.001Z</time>
      </trkpt>
      <trkpt lat="43.66938" lon="3.80523">
        <ele>102.28134</ele>
        <time>2021-03-27T07:34:34.001Z</time>
      </trkpt>
      <trkpt lat="43.66931" lon="3.80508">
        <ele>103.37549</ele>
        <time>2021-03-27T07:34:38.001Z</time>
      </trkpt>
      <trkpt lat="43.66938" lon="3.80477">
        <ele>105.73627</ele>
        <time>2021-03-27T07:34:44.001Z</time>
      </trkpt>
      <trkpt lat="43.66945" lon="3.80452">
        <ele>107.66014</ele>
        <time>2021-03-27T07:34:49.001Z</time>
      </trkpt>
      <trkpt lat="43.66944" lon="3.80432">
        <ele>108.78716</ele>
        <time>2021-03-27T07:34:53.001Z</time>
      </trkpt>
      <trkpt lat="43.66934" lon="3.80402">
        <ele>110.97667</ele>
        <time>2021-03-27T07:34:59.001Z</time>
      </trkpt>
      <trkpt lat="43.66932" lon="3.80379">
        <ele>112.5702</ele>
        <time>2021-03-27T07:35:04.001Z</time>
      </trkpt>
      <trkpt lat="43.66935" lon="3.8036">
        <ele>113.57515</ele>
        <time>2021-03-27T07:35:08.001Z</time>
      </trkpt>
      <trkpt lat="43.66962" lon="3.80338">
        <ele>114.9533</ele>
        <time>2021-03-27T07:35:15.001Z</time>
      </trkpt>
      <trkpt lat="43.66974" lon="3.80315">
        <ele>115.97156</ele>
        <time>2021-03-27T07:35:21.001Z</time>
      </trkpt>
      <trkpt lat="43.6697" lon="3.80292">
        <ele>116.77185</ele>
        <time>2021-03-27T07:35:26.001Z</time>
      </trkpt>
      <trkpt lat="43.66961" lon="3.80277">
        <ele>117.39509</ele>
        <time>2021-03-27T07:35:30.001Z</time>
      </trkpt>
      <trkpt lat="43.66947" lon="3.80264">
        <ele>118.10704</ele>
        <time>2021-03-27T07:35:35.001Z</time>
      </trkpt>
      <trkpt lat="43.66915" lon="3.80253">
        <ele>119.29588</ele>
        <time>2021-03-27T07:35:43.001Z</time>
      </trkpt>
      <trkpt lat="43.66877" lon="3.80219">
        <ele>120.08667</ele>
        <time>2021-03-27T07:35:54.001Z</time>
      </trkpt>
      <trkpt lat="43.66852" lon="3.80211">
        <ele>120.03068</ele>
        <time>2021-03-27T07:36:00.001Z</time>
      </trkpt>
      <trkpt lat="43.66832" lon="3.80212">
        <ele>119.89489</ele>
        <time>2021-03-27T07:36:04.001Z</time>
      </trkpt>
      <trkpt lat="43.66805" lon="3.80229">
        <ele>119.592</ele>
        <time>2021-03-27T07:36:10.001Z</time>
      </trkpt>
      <trkpt lat="43.6678" lon="3.8023">
        <ele>119.28035</ele>
        <time>2021-03-27T07:36:14.001Z</time>
      </trkpt>
      <trkpt lat="43.66756" lon="3.802">
        <ele>118.52397</ele>
        <time>2021-03-27T07:36:20.001Z</time>
      </trkpt>
      <trkpt lat="43.66737" lon="3.80192">
        <ele>117.91031</ele>
        <time>2021-03-27T07:36:23.001Z</time>
      </trkpt>
      <trkpt lat="43.66717" lon="3.80178">
        <ele>117.18521</ele>
        <time>2021-03-27T07:36:26.000Z</time>
      </trkpt>
      <trkpt lat="43.6667" lon="3.80149">
        <ele>114.41441</ele>
        <time>2021-03-27T07:36:35.000Z</time>
      </trkpt>
      <trkpt lat="43.66642" lon="3.80148">
        <ele>112.99572</ele>
        <time>2021-03-27T07:36:40.000Z</time>
      </trkpt>
      <trkpt lat="43.66618" lon="3.80139">
        <ele>111.88757</ele>
        <time>2021-03-27T07:36:45.000Z</time>
      </trkpt>
      <trkpt lat="43.66604" lon="3.80112">
        <ele>111.35714</ele>
        <time>2021-03-27T07:36:49.000Z</time>
      </trkpt>
      <trkpt lat="43.66546" lon="3.80055">
        <ele>110.20898</ele>
        <time>2021-03-27T07:37:01.000Z</time>
      </trkpt>
      <trkpt lat="43.66525" lon="3.80036">
        <ele>109.85654</ele>
        <time>2021-03-27T07:37:06.000Z</time>
      </trkpt>
      <trkpt lat="43.665" lon="3.80026">
        <ele>109.58437</ele>
        <time>2021-03-27T07:37:10.000Z</time>
      </trkpt>
      <trkpt lat="43.66467" lon="3.80003">
        <ele>109.22077</ele>
        <time>2021-03-27T07:37:16.000Z</time>
      </trkpt>
      <trkpt lat="43.66447" lon="3.79988">
        <ele>109.00483</ele>
        <time>2021-03-27T07:37:20.000Z</time>
      </trkpt>
      <trkpt lat="43.66427" lon="3.79976">
        <ele>108.82188</ele>
        <time>2021-03-27T07:37:24.000Z</time>
      </trkpt>
      <trkpt lat="43.66397" lon="3.79964">
        <ele>108.66498</ele>
        <time>2021-03-27T07:37:28.000Z</time>
      </trkpt>
      <trkpt lat="43.66375" lon="3.79947">
        <ele>108.51465</ele>
        <time>2021-03-27T07:37:32.000Z</time>
      </trkpt>
      <trkpt lat="43.66356" lon="3.79916">
        <ele>108.37489</ele>
        <time>2021-03-27T07:37:37.000Z</time>
      </trkpt>
      <trkpt lat="43.66346" lon="3.79887">
        <ele>108.22594</ele>
        <time>2021-03-27T07:37:41.000Z</time>
      </trkpt>
      <trkpt lat="43.66323" lon="3.79858">
        <ele>107.90505</ele>
        <time>2021-03-27T07:37:46.000Z</time>
      </trkpt>
      <trkpt lat="43.66302" lon="3.79849">
        <ele>107.47269</ele>
        <time>2021-03-27T07:37:50.000Z</time>
      </trkpt>
      <trkpt lat="43.66276" lon="3.79855">
        <ele>106.70146</ele>
        <time>2021-03-27T07:37:55.000Z</time>
      </trkpt>
      <trkpt lat="43.66257" lon="3.79834">
        <ele>105.90561</ele>
        <time>2021-03-27T07:38:00.000Z</time>
      </trkpt>
      <trkpt lat="43.66248" lon="3.79806">
        <ele>105.36664</ele>
        <time>2021-03-27T07:38:04.000Z</time>
      </trkpt>
      <trkpt lat="43.66208" lon="3.7977">
        <ele>103.75613</ele>
        <time>2021-03-27T07:38:14.000Z</time>
      </trkpt>
      <trkpt lat="43.66188" lon="3.79754">
        <ele>102.90228</ele>
        <time>2021-03-27T07:38:19.000Z</time>
      </trkpt>
      <trkpt lat="43.66167" lon="3.79727">
        <ele>102.02439</ele>
        <time>2021-03-27T07:38:24.000Z</time>
      </trkpt>
      <trkpt lat="43.66121" lon="3.79681">
        <ele>100.50852</ele>
        <time>2021-03-27T07:38:33.000Z</time>
      </trkpt>
      <trkpt lat="43.66105" lon="3.79651">
        <ele>99.70422</ele>
        <time>2021-03-27T07:38:38.000Z</time>
      </trkpt>
      <trkpt lat="43.66085" lon="3.79624">
        <ele>98.89929</ele>
        <time>2021-03-27T07:38:43.000Z</time>
      </trkpt>
      <trkpt lat="43.66061" lon="3.79621">
        <ele>98.12678</ele>
        <time>2021-03-27T07:38:48.000Z</time>
      </trkpt>
      <trkpt lat="43.66043" lon="3.79635">
        <ele>97.45426</ele>
        <time>2021-03-27T07:38:52.000Z</time>
      </trkpt>
      <trkpt lat="43.66027" lon="3.79656">
        <ele>96.77347</ele>
        <time>2021-03-27T07:38:56.000Z</time>
      </trkpt>
      <trkpt lat="43.66023" lon="3.79676">
        <ele>96.31024</ele>
        <time>2021-03-27T07:38:59.000Z</time>
      </trkpt>
      <trkpt lat="43.6602" lon="3.79685">
        <ele>96.02047</ele>
        <time>2021-03-27T07:39:01.000Z</time>
      </trkpt>
      <trkpt lat="43.66021" lon="3.79688">
        <ele>95.87102</ele>
        <time>2021-03-27T07:39:03.000Z</time>
      </trkpt>
      <trkpt lat="43.66024" lon="3.79687">
        <ele>95.72504</ele>
        <time>2021-03-27T07:39:08.000Z</time>
      </trkpt>
      <trkpt lat="43.66018" lon="3.79685">
        <ele>94.7725</ele>
        <time>2021-03-27T07:39:43.000Z</time>
      </trkpt>
      <trkpt lat="43.66025" lon="3.79645">
        <ele>93.7825</ele>
        <time>2021-03-27T07:39:50.000Z</time>
      </trkpt>
      <trkpt lat="43.66037" lon="3.79614">
        <ele>92.86258</ele>
        <time>2021-03-27T07:39:54.000Z</time>
      </trkpt>
      <trkpt lat="43.66037" lon="3.79578">
        <ele>90.96683</ele>
        <time>2021-03-27T07:39:59.000Z</time>
      </trkpt>
      <trkpt lat="43.66031" lon="3.79541">
        <ele>88.629</ele>
        <time>2021-03-27T07:40:04.000Z</time>
      </trkpt>
      <trkpt lat="43.66033" lon="3.79498">
        <ele>86.36156</ele>
        <time>2021-03-27T07:40:09.000Z</time>
      </trkpt>
      <trkpt lat="43.66032" lon="3.79478">
        <ele>84.73263</ele>
        <time>2021-03-27T07:40:13.000Z</time>
      </trkpt>
      <trkpt lat="43.66024" lon="3.79472">
        <ele>83.86964</ele>
        <time>2021-03-27T07:40:17.000Z</time>
      </trkpt>
      <trkpt lat="43.66015" lon="3.79477">
        <ele>83.49284</ele>
        <time>2021-03-27T07:40:20.000Z</time>
      </trkpt>
      <trkpt lat="43.65975" lon="3.79478">
        <ele>86.011</ele>
        <time>2021-03-27T07:40:35.000Z</time>
      </trkpt>
      <trkpt lat="43.65962" lon="3.79482">
        <ele>87.56786</ele>
        <time>2021-03-27T07:40:40.000Z</time>
      </trkpt>
      <trkpt lat="43.65953" lon="3.79496">
        <ele>90.34181</ele>
        <time>2021-03-27T07:40:45.000Z</time>
      </trkpt>
      <trkpt lat="43.65951" lon="3.7951">
        <ele>92.45297</ele>
        <time>2021-03-27T07:40:49.000Z</time>
      </trkpt>
      <trkpt lat="43.65953" lon="3.79534">
        <ele>95.06121</ele>
        <time>2021-03-27T07:40:56.000Z</time>
      </trkpt>
      <trkpt lat="43.65952" lon="3.79544">
        <ele>96.13386</ele>
        <time>2021-03-27T07:40:59.000Z</time>
      </trkpt>
      <trkpt lat="43.65938" lon="3.79538">
        <ele>97.84482</ele>
        <time>2021-03-27T07:41:06.000Z</time>
      </trkpt>
      <trkpt lat="43.65928" lon="3.79527">
        <ele>98.9208</ele>
        <time>2021-03-27T07:41:10.000Z</time>
      </trkpt>
      <trkpt lat="43.65919" lon="3.79524">
        <ele>99.68963</ele>
        <time>2021-03-27T07:41:14.000Z</time>
      </trkpt>
      <trkpt lat="43.65904" lon="3.79518">
        <ele>100.45187</ele>
        <time>2021-03-27T07:41:22.000Z</time>
      </trkpt>
      <trkpt lat="43.65893" lon="3.79505">
        <ele>100.40132</ele>
        <time>2021-03-27T07:41:30.000Z</time>
      </trkpt>
      <trkpt lat="43.65892" lon="3.7948">
        <ele>99.61834</ele>
        <time>2021-03-27T07:41:36.000Z</time>
      </trkpt>
      <trkpt lat="43.65885" lon="3.79447">
        <ele>97.14346</ele>
        <time>2021-03-27T07:41:47.001Z</time>
      </trkpt>
      <trkpt lat="43.65881" lon="3.79437">
        <ele>96.21771</ele>
        <time>2021-03-27T07:41:51.001Z</time>
      </trkpt>
      <trkpt lat="43.65882" lon="3.79421">
        <ele>93.76892</ele>
        <time>2021-03-27T07:41:58.001Z</time>
      </trkpt>
      <trkpt lat="43.65875" lon="3.79408">
        <ele>91.53582</ele>
        <time>2021-03-27T07:42:04.001Z</time>
      </trkpt>
      <trkpt lat="43.65872" lon="3.79396">
        <ele>89.31822</ele>
        <time>2021-03-27T07:42:09.001Z</time>
      </trkpt>
      <trkpt lat="43.65866" lon="3.79381">
        <ele>86.1707</ele>
        <time>2021-03-27T07:42:18.001Z</time>
      </trkpt>
      <trkpt lat="43.65858" lon="3.79382">
        <ele>84.79399</ele>
        <time>2021-03-27T07:42:21.001Z</time>
      </trkpt>
      <trkpt lat="43.6585" lon="3.79394">
        <ele>82.98009</ele>
        <time>2021-03-27T07:42:25.001Z</time>
      </trkpt>
      <trkpt lat="43.65842" lon="3.79413">
        <ele>82.02631</ele>
        <time>2021-03-27T07:42:30.001Z</time>
      </trkpt>
      <trkpt lat="43.65835" lon="3.79421">
        <ele>81.85638</ele>
        <time>2021-03-27T07:42:33.001Z</time>
      </trkpt>
      <trkpt lat="43.65822" lon="3.79429">
        <ele>81.94521</ele>
        <time>2021-03-27T07:42:38.001Z</time>
      </trkpt>
      <trkpt lat="43.6581" lon="3.79422">
        <ele>82.02826</ele>
        <time>2021-03-27T07:42:43.001Z</time>
      </trkpt>
      <trkpt lat="43.65804" lon="3.79406">
        <ele>81.9075</ele>
        <time>2021-03-27T07:42:47.001Z</time>
      </trkpt>
      <trkpt lat="43.658" lon="3.794">
        <ele>81.80333</ele>
        <time>2021-03-27T07:42:50.001Z</time>
      </trkpt>
      <trkpt lat="43.65785" lon="3.79384">
        <ele>81.11652</ele>
        <time>2021-03-27T07:42:58.001Z</time>
      </trkpt>
      <trkpt lat="43.65774" lon="3.79368">
        <ele>80.78944</ele>
        <time>2021-03-27T07:43:03.001Z</time>
      </trkpt>
      <trkpt lat="43.65759" lon="3.79341">
        <ele>80.53653</ele>
        <time>2021-03-27T07:43:10.001Z</time>
      </trkpt>
      <trkpt lat="43.65746" lon="3.79333">
        <ele>80.49907</ele>
        <time>2021-03-27T07:43:15.001Z</time>
      </trkpt>
      <trkpt lat="43.65735" lon="3.79322">
        <ele>80.53848</ele>
        <time>2021-03-27T07:43:19.001Z</time>
      </trkpt>
      <trkpt lat="43.65726" lon="3.79313">
        <ele>80.55565</ele>
        <time>2021-03-27T07:43:23.001Z</time>
      </trkpt>
      <trkpt lat="43.65711" lon="3.79315">
        <ele>80.6183</ele>
        <time>2021-03-27T07:43:28.001Z</time>
      </trkpt>
      <trkpt lat="43.65698" lon="3.79305">
        <ele>80.77373</ele>
        <time>2021-03-27T07:43:34.001Z</time>
      </trkpt>
      <trkpt lat="43.65676" lon="3.79295">
        <ele>81.12063</ele>
        <time>2021-03-27T07:43:42.001Z</time>
      </trkpt>
      <trkpt lat="43.65664" lon="3.79285">
        <ele>81.28059</ele>
        <time>2021-03-27T07:44:00.000Z</time>
      </trkpt>
      <trkpt lat="43.65654" lon="3.79278">
        <ele>81.40857</ele>
        <time>2021-03-27T07:44:04.000Z</time>
      </trkpt>
      <trkpt lat="43.65648" lon="3.79269">
        <ele>81.57729</ele>
        <time>2021-03-27T07:44:10.000Z</time>
      </trkpt>
      <trkpt lat="43.65646" lon="3.79262">
        <ele>81.60186</ele>
        <time>2021-03-27T07:44:16.000Z</time>
      </trkpt>
      <trkpt lat="43.65646" lon="3.79259">
        <ele>81.58465</ele>
        <time>2021-03-27T07:44:24.000Z</time>
      </trkpt>
      <trkpt lat="43.6564" lon="3.79248">
        <ele>81.46189</ele>
        <time>2021-03-27T07:44:34.000Z</time>
      </trkpt>
      <trkpt lat="43.65627" lon="3.79239">
        <ele>81.26336</ele>
        <time>2021-03-27T07:44:40.000Z</time>
      </trkpt>
      <trkpt lat="43.65599" lon="3.79221">
        <ele>80.55718</ele>
        <time>2021-03-27T07:44:52.000Z</time>
      </trkpt>
      <trkpt lat="43.65573" lon="3.79198">
        <ele>79.58393</ele>
        <time>2021-03-27T07:45:02.000Z</time>
      </trkpt>
      <trkpt lat="43.65569" lon="3.79192">
        <ele>79.26164</ele>
        <time>2021-03-27T07:45:05.000Z</time>
      </trkpt>
      <trkpt lat="43.6556" lon="3.79182">
        <ele>78.16154</ele>
        <time>2021-03-27T07:45:14.000Z</time>
      </trkpt>
      <trkpt lat="43.65552" lon="3.79169">
        <ele>76.37623</ele>
        <time>2021-03-27T07:45:19.000Z</time>
      </trkpt>
      <trkpt lat="43.65534" lon="3.79158">
        <ele>75.434</ele>
        <time>2021-03-27T07:45:29.000Z</time>
      </trkpt>
      <trkpt lat="43.65527" lon="3.79155">
        <ele>75.21908</ele>
        <time>2021-03-27T07:45:39.000Z</time>
      </trkpt>
      <trkpt lat="43.65525" lon="3.79147">
        <ele>74.95376</ele>
        <time>2021-03-27T07:45:43.000Z</time>
      </trkpt>
      <trkpt lat="43.65515" lon="3.79125">
        <ele>73.81527</ele>
        <time>2021-03-27T07:45:50.000Z</time>
      </trkpt>
      <trkpt lat="43.65501" lon="3.7912">
        <ele>72.90463</ele>
        <time>2021-03-27T07:45:54.000Z</time>
      </trkpt>
      <trkpt lat="43.65479" lon="3.79127">
        <ele>72.16491</ele>
        <time>2021-03-27T07:46:01.000Z</time>
      </trkpt>
      <trkpt lat="43.65459" lon="3.79124">
        <ele>72.01357</ele>
        <time>2021-03-27T07:46:08.000Z</time>
      </trkpt>
      <trkpt lat="43.65454" lon="3.79128">
        <ele>72.009</ele>
        <time>2021-03-27T07:46:11.000Z</time>
      </trkpt>
      <trkpt lat="43.65445" lon="3.79134">
        <ele>72.02837</ele>
        <time>2021-03-27T07:46:20.000Z</time>
      </trkpt>
      <trkpt lat="43.65428" lon="3.79132">
        <ele>72.12511</ele>
        <time>2021-03-27T07:46:26.000Z</time>
      </trkpt>
      <trkpt lat="43.65414" lon="3.79124">
        <ele>72.24856</ele>
        <time>2021-03-27T07:46:32.000Z</time>
      </trkpt>
      <trkpt lat="43.65401" lon="3.79123">
        <ele>72.36843</ele>
        <time>2021-03-27T07:46:37.000Z</time>
      </trkpt>
      <trkpt lat="43.65389" lon="3.7911">
        <ele>72.44617</ele>
        <time>2021-03-27T07:46:42.000Z</time>
      </trkpt>
      <trkpt lat="43.65363" lon="3.79105">
        <ele>72.49759</ele>
        <time>2021-03-27T07:46:48.000Z</time>
      </trkpt>
      <trkpt lat="43.65346" lon="3.79095">
        <ele>72.50249</ele>
        <time>2021-03-27T07:46:52.000Z</time>
      </trkpt>
      <trkpt lat="43.65323" lon="3.79091">
        <ele>72.5287</ele>
        <time>2021-03-27T07:46:57.000Z</time>
      </trkpt>
      <trkpt lat="43.65302" lon="3.79101">
        <ele>72.56544</ele>
        <time>2021-03-27T07:47:02.000Z</time>
      </trkpt>
      <trkpt lat="43.65271" lon="3.79109">
        <ele>72.55969</ele>
        <time>2021-03-27T07:47:09.000Z</time>
      </trkpt>
      <trkpt lat="43.65255" lon="3.79102">
        <ele>72.54916</ele>
        <time>2021-03-27T07:47:13.000Z</time>
      </trkpt>
      <trkpt lat="43.65234" lon="3.79078">
        <ele>72.48973</ele>
        <time>2021-03-27T07:47:18.000Z</time>
      </trkpt>
      <trkpt lat="43.65211" lon="3.79067">
        <ele>72.03965</ele>
        <time>2021-03-27T07:47:26.000Z</time>
      </trkpt>
      <trkpt lat="43.65192" lon="3.79059">
        <ele>71.20296</ele>
        <time>2021-03-27T07:47:34.000Z</time>
      </trkpt>
      <trkpt lat="43.65167" lon="3.7906">
        <ele>69.66083</ele>
        <time>2021-03-27T07:47:43.000Z</time>
      </trkpt>
      <trkpt lat="43.65149" lon="3.79052">
        <ele>68.86955</ele>
        <time>2021-03-27T07:47:48.000Z</time>
      </trkpt>
      <trkpt lat="43.6513" lon="3.7905">
        <ele>68.3869</ele>
        <time>2021-03-27T07:47:52.000Z</time>
      </trkpt>
      <trkpt lat="43.65109" lon="3.79061">
        <ele>67.92376</ele>
        <time>2021-03-27T07:47:57.000Z</time>
      </trkpt>
      <trkpt lat="43.65081" lon="3.79082">
        <ele>67.36974</ele>
        <time>2021-03-27T07:48:04.000Z</time>
      </trkpt>
      <trkpt lat="43.6507" lon="3.79076">
        <ele>67.10617</ele>
        <time>2021-03-27T07:48:07.000Z</time>
      </trkpt>
      <trkpt lat="43.65083" lon="3.79053">
        <ele>66.65178</ele>
        <time>2021-03-27T07:48:12.000Z</time>
      </trkpt>
      <trkpt lat="43.65066" lon="3.79087">
        <ele>65.45588</ele>
        <time>2021-03-27T07:48:27.000Z</time>
      </trkpt>
      <trkpt lat="43.65054" lon="3.79074">
        <ele>65.1248</ele>
        <time>2021-03-27T07:48:32.000Z</time>
      </trkpt>
      <trkpt lat="43.65062" lon="3.79058">
        <ele>64.6356</ele>
        <time>2021-03-27T07:48:37.001Z</time>
      </trkpt>
      <trkpt lat="43.65065" lon="3.79055">
        <ele>64.51436</ele>
        <time>2021-03-27T07:48:38.001Z</time>
      </trkpt>
      <trkpt lat="43.65066" lon="3.79051">
        <ele>64.37772</ele>
        <time>2021-03-27T07:48:43.001Z</time>
      </trkpt>
      <trkpt lat="43.65067" lon="3.79045">
        <ele>64.25088</ele>
        <time>2021-03-27T07:48:58.001Z</time>
      </trkpt>
      <trkpt lat="43.65066" lon="3.79047">
        <ele>62.97392</ele>
        <time>2021-03-27T07:51:11.000Z</time>
      </trkpt>
      <trkpt lat="43.65065" lon="3.7905">
        <ele>61.40261</ele>
        <time>2021-03-27T07:57:15.001Z</time>
      </trkpt>
      <trkpt lat="43.65068" lon="3.79046">
        <ele>61.37837</ele>
        <time>2021-03-27T07:58:46.000Z</time>
      </trkpt>
      <trkpt lat="43.65067" lon="3.79046">
        <ele>61.38924</ele>
        <time>2021-03-27T07:59:09.000Z</time>
      </trkpt>
      <trkpt lat="43.65064" lon="3.79044">
        <ele>61.28838</ele>
        <time>2021-03-27T08:04:18.000Z</time>
      </trkpt>
      <trkpt lat="43.65058" lon="3.79048">
        <ele>61.21502</ele>
        <time>2021-03-27T08:04:25.000Z</time>
      </trkpt>
      <trkpt lat="43.65055" lon="3.79065">
        <ele>61.15402</ele>
        <time>2021-03-27T08:04:31.000Z</time>
      </trkpt>
      <trkpt lat="43.65058" lon="3.79082">
        <ele>61.12258</ele>
        <time>2021-03-27T08:04:36.000Z</time>
      </trkpt>
      <trkpt lat="43.65069" lon="3.79084">
        <ele>61.16749</ele>
        <time>2021-03-27T08:04:40.000Z</time>
      </trkpt>
      <trkpt lat="43.65099" lon="3.79034">
        <ele>61.2066</ele>
        <time>2021-03-27T08:04:51.000Z</time>
      </trkpt>
      <trkpt lat="43.65105" lon="3.79008">
        <ele>61.15374</ele>
        <time>2021-03-27T08:04:58.000Z</time>
      </trkpt>
      <trkpt lat="43.65103" lon="3.78992">
        <ele>61.11611</ele>
        <time>2021-03-27T08:05:01.000Z</time>
      </trkpt>
      <trkpt lat="43.65093" lon="3.78963">
        <ele>61.07638</ele>
        <time>2021-03-27T08:05:05.000Z</time>
      </trkpt>
      <trkpt lat="43.65084" lon="3.78929">
        <ele>61.02896</ele>
        <time>2021-03-27T08:05:11.000Z</time>
      </trkpt>
      <trkpt lat="43.65076" lon="3.78906">
        <ele>60.99415</ele>
        <time>2021-03-27T08:05:15.000Z</time>
      </trkpt>
      <trkpt lat="43.65076" lon="3.7889">
        <ele>60.96909</ele>
        <time>2021-03-27T08:05:18.000Z</time>
      </trkpt>
      <trkpt lat="43.65069" lon="3.78885">
        <ele>60.94291</ele>
        <time>2021-03-27T08:05:22.000Z</time>
      </trkpt>
      <trkpt lat="43.65053" lon="3.78905">
        <ele>60.81593</ele>
        <time>2021-03-27T08:05:28.000Z</time>
      </trkpt>
      <trkpt lat="43.6505" lon="3.78917">
        <ele>60.7114</ele>
        <time>2021-03-27T08:05:31.000Z</time>
      </trkpt>
      <trkpt lat="43.65055" lon="3.78923">
        <ele>60.66226</ele>
        <time>2021-03-27T08:05:35.000Z</time>
      </trkpt>
      <trkpt lat="43.65054" lon="3.7893">
        <ele>59.81667</ele>
        <time>2021-03-27T08:06:07.000Z</time>
      </trkpt>
    </trkseg>
  </trk>
</gpx>